Decoded Metar for PAOM (NOME in AK, USA) (IATA:OME) | Meteo·Mobile Aviation Weather
aviador You're here:

PAOM Decoded Metar

NOME in AK, USA
Report Time2019-04-18 20:53:00
UTC Time2019-04-18 21:12:12
Flight Rules vfr VFR
Wind360° at 16 kt
W.Decomp.*RWY 03: 11.5 kt HW 11.1 kt LCW
RWY 28: 6.5 kt HW 14.6 kt RCW
Visibility9999 m
Phenomena:N/A
Clouds:Few 040 Hf
Scattered 080 Hf
Expected CloudBase > 2,000 ft AGL from Temp-Dew spread
CeilingNone
Temp-6°C (ISA -21)
Dew Point-11°C (68% RH)
AAT-14.9°C
QNH1006 hPa
Density Alt-2,280 ft
Elevation36 ft
Report Wrong Elevation
Raw Report
PAOM 182053Z 36016KT 10SM FEW040 SCT080 M06/M11 A2970=

Extra information for PAOM:More info

Metar Taf Metar & Taf Last 4 Metars F.Rules Stats Wind Profile Meteogram Temp Stats Airport Information Weather charts Add Link Nearby VenuesMetar ALERT Operation Metar Decoded Social comments

AIRNAV info for PAOM